sensor_id;sensor_type;location;lat;lon;timestamp;pressure;altitude;pressure_sealevel;temperature;humidity
6150;BME280;3106;42.670;23.318;2022-12-29T00:01:43;95327.56;;;6.06;100.00
6150;BME280;3106;42.670;23.318;2022-12-29T00:04:12;95327.06;;;6.04;100.00
6150;BME280;3106;42.670;23.318;2022-12-29T00:06:39;95326.50;;;6.07;100.00
6150;BME280;3106;42.670;23.318;2022-12-29T00:09:06;95336.34;;;6.06;100.00
6150;BME280;3106;42.670;23.318;2022-12-29T00:11:34;95335.75;;;6.09;100.00
6150;BME280;3106;42.670;23.318;2022-12-29T00:14:02;95325.91;;;6.10;100.00
6150;BME280;3106;42.670;23.318;2022-12-29T00:16:45;95329.28;;;6.15;100.00
6150;BME280;3106;42.670;23.318;2022-12-29T00:19:12;95325.03;;;6.14;100.00
6150;BME280;3106;42.670;23.318;2022-12-29T00:21:57;95306.50;;;5.96;100.00
6150;BME280;3106;42.670;23.318;2022-12-29T00:24:42;95331.44;;;6.13;100.00
6150;BME280;3106;42.670;23.318;2022-12-29T00:27:29;95334.19;;;6.08;100.00
6150;BME280;3106;42.670;23.318;2022-12-29T00:30:04;95333.97;;;6.05;100.00
6150;BME280;3106;42.670;23.318;2022-12-29T00:32:51;95340.56;;;6.07;100.00
6150;BME280;3106;42.670;23.318;2022-12-29T00:35:38;95312.50;;;5.88;100.00
6150;BME280;3106;42.670;23.318;2022-12-29T00:38:07;95347.34;;;6.13;100.00
6150;BME280;3106;42.670;23.318;2022-12-29T00:40:52;95348.03;;;6.19;100.00
6150;BME280;3106;42.670;23.318;2022-12-29T00:43:37;95353.06;;;6.20;100.00
6150;BME280;3106;42.670;23.318;2022-12-29T00:46:24;95356.00;;;6.19;100.00
6150;BME280;3106;42.670;23.318;2022-12-29T00:48:53;95359.47;;;6.19;100.00
6150;BME280;3106;42.670;23.318;2022-12-29T00:51:38;95362.63;;;6.21;100.00
6150;BME280;3106;42.670;23.318;2022-12-29T00:54:04;95354.66;;;6.21;100.00
6150;BME280;3106;42.670;23.318;2022-12-29T00:56:31;95348.94;;;6.14;100.00
6150;BME280;3106;42.670;23.318;2022-12-29T00:59:01;95352.34;;;6.15;100.00
6150;BME280;3106;42.670;23.318;2022-12-29T01:01:31;95349.44;;;6.16;100.00
6150;BME280;3106;42.670;23.318;2022-12-29T01:03:58;95353.34;;;6.19;100.00
6150;BME280;3106;42.670;23.318;2022-12-29T01:06:26;95262.19;;;5.46;100.00
6150;BME280;3106;42.670;23.318;2022-12-29T01:08:53;95359.28;;;5.97;100.00
6150;BME280;3106;42.670;23.318;2022-12-29T01:11:33;95346.41;;;5.91;100.00
6150;BME280;3106;42.670;23.318;2022-12-29T01:14:05;95351.47;;;6.06;100.00
6150;BME280;3106;42.670;23.318;2022-12-29T01:16:32;95342.78;;;6.00;100.00
6150;BME280;3106;42.670;23.318;2022-12-29T01:18:59;95342.59;;;5.97;100.00
6150;BME280;3106;42.670;23.318;2022-12-29T01:21:28;95338.94;;;5.93;100.00
6150;BME280;3106;42.670;23.318;2022-12-29T01:23:55;95323.59;;;5.90;100.00
6150;BME280;3106;42.670;23.318;2022-12-29T01:26:22;95343.94;;;5.94;100.00
6150;BME280;3106;42.670;23.318;2022-12-29T01:28:49;95338.53;;;5.86;100.00
6150;BME280;3106;42.670;23.318;2022-12-29T01:31:21;95339.72;;;5.75;100.00
6150;BME280;3106;42.670;23.318;2022-12-29T01:33:50;95329.50;;;5.69;100.00
6150;BME280;3106;42.670;23.318;2022-12-29T01:36:17;95335.00;;;5.72;100.00
6150;BME280;3106;42.670;23.318;2022-12-29T01:38:47;95330.84;;;5.66;100.00
6150;BME280;3106;42.670;23.318;2022-12-29T01:41:18;95325.69;;;5.75;100.00
6150;BME280;3106;42.670;23.318;2022-12-29T01:43:47;95322.66;;;5.81;100.00
6150;BME280;3106;42.670;23.318;2022-12-29T01:46:25;95320.59;;;5.78;100.00
6150;BME280;3106;42.670;23.318;2022-12-29T01:48:57;95322.81;;;5.71;100.00
6150;BME280;3106;42.670;23.318;2022-12-29T01:51:26;95321.31;;;5.65;100.00
6150;BME280;3106;42.670;23.318;2022-12-29T01:53:55;95323.25;;;5.60;100.00
6150;BME280;3106;42.670;23.318;2022-12-29T01:56:25;95318.59;;;5.52;100.00
6150;BME280;3106;42.670;23.318;2022-12-29T01:59:00;95321.25;;;5.52;100.00
6150;BME280;3106;42.670;23.318;2022-12-29T02:01:30;95323.41;;;5.50;100.00
6150;BME280;3106;42.670;23.318;2022-12-29T02:03:58;95317.09;;;5.46;100.00
6150;BME280;3106;42.670;23.318;2022-12-29T02:06:28;95298.81;;;5.44;100.00
6150;BME280;3106;42.670;23.318;2022-12-29T02:08:56;95311.72;;;5.51;100.00
6150;BME280;3106;42.670;23.318;2022-12-29T02:11:26;95269.31;;;5.32;100.00
6150;BME280;3106;42.670;23.318;2022-12-29T02:13:57;95305.50;;;5.60;100.00
6150;BME280;3106;42.670;23.318;2022-12-29T02:16:44;95307.25;;;5.65;100.00
6150;BME280;3106;42.670;23.318;2022-12-29T02:20:04;95288.41;;;5.66;100.00
6150;BME280;3106;42.670;23.318;2022-12-29T02:22:48;95305.31;;;5.70;100.00
6150;BME280;3106;42.670;23.318;2022-12-29T02:31:39;95278.31;;;5.50;100.00
6150;BME280;3106;42.670;23.318;2022-12-29T02:34:17;95306.19;;;5.66;100.00
6150;BME280;3106;42.670;23.318;2022-12-29T02:37:00;95307.78;;;5.67;100.00
6150;BME280;3106;42.670;23.318;2022-12-29T02:39:41;95291.31;;;5.51;100.00
6150;BME280;3106;42.670;23.318;2022-12-29T02:42:22;95302.69;;;5.52;100.00
6150;BME280;3106;42.670;23.318;2022-12-29T02:44:55;95298.81;;;5.44;100.00
6150;BME280;3106;42.670;23.318;2022-12-29T02:47:32;95307.91;;;5.57;100.00
6150;BME280;3106;42.670;23.318;2022-12-29T02:50:08;95313.22;;;5.57;100.00
6150;BME280;3106;42.670;23.318;2022-12-29T02:52:40;95294.97;;;5.55;100.00
6150;BME280;3106;42.670;23.318;2022-12-29T02:55:10;95303.81;;;5.64;100.00
6150;BME280;3106;42.670;23.318;2022-12-29T02:57:36;95261.66;;;5.49;100.00
6150;BME280;3106;42.670;23.318;2022-12-29T03:00:06;95284.91;;;5.71;100.00
6150;BME280;3106;42.670;23.318;2022-12-29T03:02:58;95289.63;;;5.74;100.00
6150;BME280;3106;42.670;23.318;2022-12-29T03:05:51;95289.13;;;5.72;100.00
6150;BME280;3106;42.670;23.318;2022-12-29T03:08:30;95285.88;;;5.75;100.00
6150;BME280;3106;42.670;23.318;2022-12-29T03:11:02;95269.34;;;5.64;100.00
6150;BME280;3106;42.670;23.318;2022-12-29T03:13:34;95248.09;;;5.51;100.00
6150;BME280;3106;42.670;23.318;2022-12-29T03:16:24;95277.88;;;5.61;100.00
6150;BME280;3106;42.670;23.318;2022-12-29T03:19:00;95293.78;;;5.80;100.00
6150;BME280;3106;42.670;23.318;2022-12-29T03:21:36;95277.88;;;5.80;100.00
6150;BME280;3106;42.670;23.318;2022-12-29T03:24:25;95275.78;;;5.77;100.00
6150;BME280;3106;42.670;23.318;2022-12-29T03:26:54;95234.91;;;5.46;100.00
6150;BME280;3106;42.670;23.318;2022-12-29T03:29:24;95278.16;;;5.60;100.00
6150;BME280;3106;42.670;23.318;2022-12-29T03:31:51;95276.34;;;5.42;100.00
6150;BME280;3106;42.670;23.318;2022-12-29T03:34:24;95288.03;;;5.41;100.00
6150;BME280;3106;42.670;23.318;2022-12-29T03:36:54;95277.34;;;5.27;100.00
6150;BME280;3106;42.670;23.318;2022-12-29T03:39:25;95289.53;;;5.10;100.00
6150;BME280;3106;42.670;23.318;2022-12-29T03:41:59;95288.47;;;5.11;100.00
6150;BME280;3106;42.670;23.318;2022-12-29T03:44:32;95248.47;;;4.89;100.00
6150;BME280;3106;42.670;23.318;2022-12-29T03:46:59;95282.72;;;5.04;100.00
6150;BME280;3106;42.670;23.318;2022-12-29T03:49:28;95292.34;;;5.00;100.00
6150;BME280;3106;42.670;23.318;2022-12-29T03:51:55;95294.69;;;5.01;100.00
6150;BME280;3106;42.670;23.318;2022-12-29T03:54:21;95294.75;;;4.96;100.00
6150;BME280;3106;42.670;23.318;2022-12-29T03:56:51;95292.44;;;4.90;100.00
6150;BME280;3106;42.670;23.318;2022-12-29T03:59:20;95308.06;;;4.91;100.00
6150;BME280;3106;42.670;23.318;2022-12-29T04:01:47;95306.06;;;4.83;100.00
6150;BME280;3106;42.670;23.318;2022-12-29T04:04:14;95310.84;;;4.81;100.00
6150;BME280;3106;42.670;23.318;2022-12-29T04:06:42;95312.19;;;4.79;100.00
6150;BME280;3106;42.670;23.318;2022-12-29T04:09:09;95317.63;;;4.69;100.00
6150;BME280;3106;42.670;23.318;2022-12-29T04:11:39;95304.72;;;4.62;100.00
6150;BME280;3106;42.670;23.318;2022-12-29T04:14:05;95302.44;;;4.56;100.00
6150;BME280;3106;42.670;23.318;2022-12-29T04:16:32;95300.88;;;4.50;100.00
6150;BME280;3106;42.670;23.318;2022-12-29T04:19:01;95307.25;;;4.49;100.00
6150;BME280;3106;42.670;23.318;2022-12-29T04:21:28;95292.25;;;4.44;100.00
6150;BME280;3106;42.670;23.318;2022-12-29T04:23:56;95285.97;;;4.36;100.00
6150;BME280;3106;42.670;23.318;2022-12-29T04:26:23;95305.03;;;4.38;100.00
6150;BME280;3106;42.670;23.318;2022-12-29T04:28:49;95308.22;;;4.35;100.00
6150;BME280;3106;42.670;23.318;2022-12-29T04:31:16;95304.34;;;4.27;100.00
6150;BME280;3106;42.670;23.318;2022-12-29T04:33:43;95311.47;;;4.27;100.00
6150;BME280;3106;42.670;23.318;2022-12-29T04:36:13;95308.66;;;4.18;100.00
6150;BME280;3106;42.670;23.318;2022-12-29T04:38:40;95286.69;;;3.94;100.00
6150;BME280;3106;42.670;23.318;2022-12-29T04:41:08;95320.34;;;4.12;100.00
6150;BME280;3106;42.670;23.318;2022-12-29T04:43:35;95328.59;;;4.11;100.00
6150;BME280;3106;42.670;23.318;2022-12-29T04:46:02;95327.28;;;4.08;100.00
6150;BME280;3106;42.670;23.318;2022-12-29T04:48:28;95326.78;;;4.06;100.00
6150;BME280;3106;42.670;23.318;2022-12-29T04:50:55;95334.16;;;4.09;100.00
6150;BME280;3106;42.670;23.318;2022-12-29T04:53:22;95330.94;;;4.12;100.00
6150;BME280;3106;42.670;23.318;2022-12-29T04:55:50;95319.91;;;4.05;100.00
6150;BME280;3106;42.670;23.318;2022-12-29T04:58:22;95320.22;;;3.99;100.00
6150;BME280;3106;42.670;23.318;2022-12-29T05:00:50;95336.78;;;4.09;100.00
6150;BME280;3106;42.670;23.318;2022-12-29T05:03:19;95337.25;;;4.16;100.00
6150;BME280;3106;42.670;23.318;2022-12-29T05:05:47;95338.28;;;4.20;100.00
6150;BME280;3106;42.670;23.318;2022-12-29T05:08:16;95327.41;;;4.22;100.00
6150;BME280;3106;42.670;23.318;2022-12-29T05:10:45;95331.38;;;4.24;100.00
6150;BME280;3106;42.670;23.318;2022-12-29T05:13:12;95340.84;;;4.30;100.00
6150;BME280;3106;42.670;23.318;2022-12-29T05:15:45;95339.38;;;4.43;100.00
6150;BME280;3106;42.670;23.318;2022-12-29T05:18:15;95332.16;;;4.48;100.00
6150;BME280;3106;42.670;23.318;2022-12-29T05:20:42;95340.78;;;4.58;100.00
6150;BME280;3106;42.670;23.318;2022-12-29T05:23:15;95346.00;;;4.63;100.00
6150;BME280;3106;42.670;23.318;2022-12-29T05:25:46;95302.75;;;4.49;100.00
6150;BME280;3106;42.670;23.318;2022-12-29T05:28:16;95343.97;;;4.79;100.00
6150;BME280;3106;42.670;23.318;2022-12-29T05:30:48;95309.75;;;4.64;100.00
6150;BME280;3106;42.670;23.318;2022-12-29T05:33:17;95338.84;;;4.87;100.00
6150;BME280;3106;42.670;23.318;2022-12-29T05:35:44;95344.09;;;4.92;100.00
6150;BME280;3106;42.670;23.318;2022-12-29T05:38:11;95334.06;;;4.89;100.00
6150;BME280;3106;42.670;23.318;2022-12-29T05:40:38;95346.72;;;4.92;100.00
6150;BME280;3106;42.670;23.318;2022-12-29T05:43:08;95346.16;;;4.95;100.00
6150;BME280;3106;42.670;23.318;2022-12-29T05:45:36;95337.47;;;4.90;100.00
6150;BME280;3106;42.670;23.318;2022-12-29T05:48:04;95332.16;;;4.95;100.00
6150;BME280;3106;42.670;23.318;2022-12-29T05:50:31;95344.25;;;5.01;100.00
6150;BME280;3106;42.670;23.318;2022-12-29T05:52:58;95347.09;;;5.04;100.00
6150;BME280;3106;42.670;23.318;2022-12-29T05:55:25;95339.06;;;4.91;100.00
6150;BME280;3106;42.670;23.318;2022-12-29T05:57:56;95359.72;;;4.94;100.00
6150;BME280;3106;42.670;23.318;2022-12-29T06:00:23;95354.28;;;5.04;100.00
6150;BME280;3106;42.670;23.318;2022-12-29T06:02:53;95348.41;;;5.07;100.00
6150;BME280;3106;42.670;23.318;2022-12-29T06:05:22;95355.72;;;5.15;100.00
6150;BME280;3106;42.670;23.318;2022-12-29T06:07:49;95355.66;;;5.20;100.00
6150;BME280;3106;42.670;23.318;2022-12-29T06:10:16;95362.69;;;5.29;100.00
6150;BME280;3106;42.670;23.318;2022-12-29T06:12:43;95355.47;;;5.35;100.00
6150;BME280;3106;42.670;23.318;2022-12-29T06:15:13;95349.84;;;5.36;100.00
6150;BME280;3106;42.670;23.318;2022-12-29T06:17:40;95357.88;;;5.50;100.00
6150;BME280;3106;42.670;23.318;2022-12-29T06:20:08;95354.16;;;5.51;100.00
6150;BME280;3106;42.670;23.318;2022-12-29T06:22:37;95357.03;;;5.54;100.00
6150;BME280;3106;42.670;23.318;2022-12-29T06:25:04;95356.53;;;5.52;100.00
6150;BME280;3106;42.670;23.318;2022-12-29T06:27:32;95358.88;;;5.54;100.00
6150;BME280;3106;42.670;23.318;2022-12-29T06:29:59;95367.56;;;5.59;100.00
6150;BME280;3106;42.670;23.318;2022-12-29T06:32:26;95357.88;;;5.50;100.00
6150;BME280;3106;42.670;23.318;2022-12-29T06:34:53;95369.06;;;5.47;100.00
6150;BME280;3106;42.670;23.318;2022-12-29T06:37:20;95366.56;;;5.55;100.00
6150;BME280;3106;42.670;23.318;2022-12-29T06:39:49;95336.25;;;5.43;100.00
6150;BME280;3106;42.670;23.318;2022-12-29T06:42:16;95375.66;;;5.68;100.00
6150;BME280;3106;42.670;23.318;2022-12-29T06:44:43;95360.88;;;5.62;100.00
6150;BME280;3106;42.670;23.318;2022-12-29T06:47:10;95365.06;;;5.68;100.00
6150;BME280;3106;42.670;23.318;2022-12-29T06:49:37;95332.22;;;5.45;100.00
6150;BME280;3106;42.670;23.318;2022-12-29T06:52:06;95360.03;;;5.48;100.00
6150;BME280;3106;42.670;23.318;2022-12-29T06:54:33;95370.13;;;5.64;100.00
6150;BME280;3106;42.670;23.318;2022-12-29T06:57:01;95377.94;;;5.74;100.00
6150;BME280;3106;42.670;23.318;2022-12-29T06:59:28;95375.09;;;5.71;100.00
6150;BME280;3106;42.670;23.318;2022-12-29T07:01:55;95376.22;;;5.65;100.00
6150;BME280;3106;42.670;23.318;2022-12-29T07:04:22;95375.72;;;5.81;100.00
6150;BME280;3106;42.670;23.318;2022-12-29T07:06:49;95387.41;;;5.98;100.00
6150;BME280;3106;42.670;23.318;2022-12-29T07:09:16;95387.84;;;6.05;100.00
6150;BME280;3106;42.670;23.318;2022-12-29T07:11:43;95374.56;;;6.05;100.00
6150;BME280;3106;42.670;23.318;2022-12-29T07:14:21;95368.03;;;6.30;100.00
6150;BME280;3106;42.670;23.318;2022-12-29T07:16:48;95383.22;;;6.43;100.00
6150;BME280;3106;42.670;23.318;2022-12-29T07:19:18;95370.91;;;6.47;100.00
6150;BME280;3106;42.670;23.318;2022-12-29T07:21:45;95363.44;;;6.49;100.00
6150;BME280;3106;42.670;23.318;2022-12-29T07:24:12;95367.41;;;6.51;100.00
6150;BME280;3106;42.670;23.318;2022-12-29T07:26:39;95382.19;;;6.71;99.65
6150;BME280;3106;42.670;23.318;2022-12-29T07:29:09;95337.09;;;6.52;99.01
6150;BME280;3106;42.670;23.318;2022-12-29T07:31:37;95382.09;;;6.89;99.23
6150;BME280;3106;42.670;23.318;2022-12-29T07:34:04;95377.56;;;7.03;98.08
6150;BME280;3106;42.670;23.318;2022-12-29T07:36:31;95368.81;;;6.89;98.33
6150;BME280;3106;42.670;23.318;2022-12-29T07:38:58;95374.41;;;7.01;97.77
6150;BME280;3106;42.670;23.318;2022-12-29T07:41:29;95366.13;;;7.16;97.18
6150;BME280;3106;42.670;23.318;2022-12-29T07:43:56;95367.38;;;7.32;96.51
6150;BME280;3106;42.670;23.318;2022-12-29T07:46:23;95376.75;;;7.30;96.06
6150;BME280;3106;42.670;23.318;2022-12-29T07:48:51;95372.78;;;7.41;95.48
6150;BME280;3106;42.670;23.318;2022-12-29T07:51:21;95373.69;;;7.36;95.13
6150;BME280;3106;42.670;23.318;2022-12-29T07:53:54;95383.28;;;7.59;94.14
6150;BME280;3106;42.670;23.318;2022-12-29T07:56:29;95380.88;;;7.49;94.38
6150;BME280;3106;42.670;23.318;2022-12-29T07:58:58;95394.97;;;7.85;93.86
6150;BME280;3106;42.670;23.318;2022-12-29T08:01:25;95359.22;;;7.64;92.00
6150;BME280;3106;42.670;23.318;2022-12-29T08:03:54;95388.56;;;7.86;92.30
6150;BME280;3106;42.670;23.318;2022-12-29T08:06:21;95385.88;;;8.08;91.39
6150;BME280;3106;42.670;23.318;2022-12-29T08:08:48;95396.94;;;8.37;89.48
6150;BME280;3106;42.670;23.318;2022-12-29T08:11:18;95401.59;;;8.31;89.54
6150;BME280;3106;42.670;23.318;2022-12-29T08:13:45;95394.81;;;8.47;88.85
6150;BME280;3106;42.670;23.318;2022-12-29T08:16:12;95398.44;;;8.82;87.62
6150;BME280;3106;42.670;23.318;2022-12-29T08:18:39;95384.75;;;9.13;86.28
6150;BME280;3106;42.670;23.318;2022-12-29T08:21:07;95388.81;;;9.02;86.18
6150;BME280;3106;42.670;23.318;2022-12-29T08:23:34;95389.69;;;8.90;86.01
6150;BME280;3106;42.670;23.318;2022-12-29T08:26:05;95385.72;;;8.79;86.27
6150;BME280;3106;42.670;23.318;2022-12-29T08:28:33;95381.06;;;8.93;86.06
6150;BME280;3106;42.670;23.318;2022-12-29T08:31:02;95383.25;;;8.91;85.87
6150;BME280;3106;42.670;23.318;2022-12-29T08:33:29;95384.81;;;8.83;86.36
6150;BME280;3106;42.670;23.318;2022-12-29T08:35:59;95379.06;;;8.98;86.14
6150;BME280;3106;42.670;23.318;2022-12-29T08:38:28;95352.56;;;8.63;85.92
6150;BME280;3106;42.670;23.318;2022-12-29T08:40:56;95377.72;;;8.79;86.73
6150;BME280;3106;42.670;23.318;2022-12-29T08:43:24;95384.63;;;8.80;85.98
6150;BME280;3106;42.670;23.318;2022-12-29T08:45:57;95393.50;;;8.97;86.12
6150;BME280;3106;42.670;23.318;2022-12-29T08:48:24;95389.91;;;9.01;85.50
6150;BME280;3106;42.670;23.318;2022-12-29T08:50:54;95352.66;;;8.49;85.71
6150;BME280;3106;42.670;23.318;2022-12-29T08:53:23;95390.56;;;8.77;86.75
6150;BME280;3106;42.670;23.318;2022-12-29T08:55:57;95377.19;;;8.98;86.44
6150;BME280;3106;42.670;23.318;2022-12-29T08:58:24;95378.03;;;9.24;84.74
6150;BME280;3106;42.670;23.318;2022-12-29T09:00:52;95372.22;;;9.22;84.64
6150;BME280;3106;42.670;23.318;2022-12-29T09:03:25;95370.31;;;9.14;84.56
6150;BME280;3106;42.670;23.318;2022-12-29T09:05:56;95367.63;;;9.06;84.88
6150;BME280;3106;42.670;23.318;2022-12-29T09:08:23;95368.09;;;9.08;85.09
6150;BME280;3106;42.670;23.318;2022-12-29T09:10:50;95338.53;;;8.88;85.48
6150;BME280;3106;42.670;23.318;2022-12-29T09:13:19;95364.38;;;9.17;85.00
6150;BME280;3106;42.670;23.318;2022-12-29T09:15:48;95358.63;;;9.41;84.10
6150;BME280;3106;42.670;23.318;2022-12-29T09:18:15;95372.47;;;9.60;83.29
6150;BME280;3106;42.670;23.318;2022-12-29T09:20:43;95371.56;;;9.81;82.84
6150;BME280;3106;42.670;23.318;2022-12-29T09:23:10;95367.78;;;9.99;82.39
6150;BME280;3106;42.670;23.318;2022-12-29T09:25:36;95359.66;;;10.04;81.76
6150;BME280;3106;42.670;23.318;2022-12-29T09:28:07;95370.19;;;10.09;81.23
6150;BME280;3106;42.670;23.318;2022-12-29T09:30:35;95355.97;;;10.43;80.18
6150;BME280;3106;42.670;23.318;2022-12-29T09:33:02;95351.53;;;10.63;79.37
6150;BME280;3106;42.670;23.318;2022-12-29T09:35:34;95353.94;;;10.48;78.47
6150;BME280;3106;42.670;23.318;2022-12-29T09:38:02;95344.41;;;10.13;80.37
6150;BME280;3106;42.670;23.318;2022-12-29T09:40:30;95355.84;;;9.88;81.62
6150;BME280;3106;42.670;23.318;2022-12-29T09:43:20;95340.75;;;9.84;81.63
6150;BME280;3106;42.670;23.318;2022-12-29T09:45:55;95340.13;;;9.61;83.81
6150;BME280;3106;42.670;23.318;2022-12-29T09:48:35;95345.81;;;10.02;83.31
6150;BME280;3106;42.670;23.318;2022-12-29T09:51:13;95341.63;;;10.55;80.53
6150;BME280;3106;42.670;23.318;2022-12-29T09:53:44;95339.91;;;10.51;79.59
6150;BME280;3106;42.670;23.318;2022-12-29T09:56:16;95330.88;;;10.18;80.58
6150;BME280;3106;42.670;23.318;2022-12-29T09:58:50;95329.56;;;10.41;79.90
6150;BME280;3106;42.670;23.318;2022-12-29T10:01:32;95319.91;;;10.65;79.09
6150;BME280;3106;42.670;23.318;2022-12-29T10:04:02;95323.31;;;10.74;78.84
6150;BME280;3106;42.670;23.318;2022-12-29T10:06:36;95287.47;;;10.67;78.08
6150;BME280;3106;42.670;23.318;2022-12-29T10:09:13;95314.38;;;10.70;78.72
6150;BME280;3106;42.670;23.318;2022-12-29T10:11:54;95313.28;;;10.63;79.06
6150;BME280;3106;42.670;23.318;2022-12-29T10:14:35;95315.69;;;10.56;79.64
6150;BME280;3106;42.670;23.318;2022-12-29T10:17:19;95310.91;;;10.70;79.53
6150;BME280;3106;42.670;23.318;2022-12-29T10:19:57;95294.84;;;10.70;78.81
6150;BME280;3106;42.670;23.318;2022-12-29T10:22:40;95301.97;;;10.66;78.74
6150;BME280;3106;42.670;23.318;2022-12-29T10:25:16;95298.34;;;10.62;79.23
6150;BME280;3106;42.670;23.318;2022-12-29T10:27:47;95301.75;;;10.79;78.19
6150;BME280;3106;42.670;23.318;2022-12-29T10:30:17;95289.72;;;11.23;77.90
6150;BME280;3106;42.670;23.318;2022-12-29T10:32:47;95294.50;;;11.38;76.76
6150;BME280;3106;42.670;23.318;2022-12-29T10:35:20;95300.09;;;11.74;75.90
6150;BME280;3106;42.670;23.318;2022-12-29T10:37:56;95296.25;;;11.83;73.99
6150;BME280;3106;42.670;23.318;2022-12-29T10:40:27;95289.56;;;11.89;74.25
6150;BME280;3106;42.670;23.318;2022-12-29T10:43:00;95284.28;;;11.81;73.61
6150;BME280;3106;42.670;23.318;2022-12-29T10:45:31;95281.59;;;11.81;73.80
6150;BME280;3106;42.670;23.318;2022-12-29T10:48:03;95277.28;;;11.68;74.33
6150;BME280;3106;42.670;23.318;2022-12-29T10:50:35;95283.03;;;11.99;73.83
6150;BME280;3106;42.670;23.318;2022-12-29T10:53:15;95281.28;;;12.14;72.37
6150;BME280;3106;42.670;23.318;2022-12-29T10:55:45;95277.75;;;12.22;72.47
6150;BME280;3106;42.670;23.318;2022-12-29T10:58:13;95258.34;;;12.37;71.26
6150;BME280;3106;42.670;23.318;2022-12-29T11:00:43;95250.75;;;12.51;71.28
6150;BME280;3106;42.670;23.318;2022-12-29T11:03:34;95259.38;;;12.45;70.43
6150;BME280;3106;42.670;23.318;2022-12-29T11:06:08;95258.94;;;12.55;70.32
6150;BME280;3106;42.670;23.318;2022-12-29T11:08:39;95245.38;;;12.51;69.69
6150;BME280;3106;42.670;23.318;2022-12-29T11:11:09;95259.09;;;12.26;70.49
6150;BME280;3106;42.670;23.318;2022-12-29T11:13:48;95254.75;;;12.21;71.00
6150;BME280;3106;42.670;23.318;2022-12-29T11:16:27;95241.47;;;11.93;71.96
6150;BME280;3106;42.670;23.318;2022-12-29T11:18:57;95236.34;;;11.67;73.09
6150;BME280;3106;42.670;23.318;2022-12-29T11:21:30;95242.16;;;11.49;74.15
6150;BME280;3106;42.670;23.318;2022-12-29T11:24:00;95250.91;;;11.58;74.15
6150;BME280;3106;42.670;23.318;2022-12-29T11:26:27;95244.19;;;11.72;74.31
6150;BME280;3106;42.670;23.318;2022-12-29T11:29:14;95246.94;;;11.64;74.02
6150;BME280;3106;42.670;23.318;2022-12-29T11:31:50;95219.22;;;11.39;74.58
6150;BME280;3106;42.670;23.318;2022-12-29T11:34:20;95252.19;;;11.52;75.67
6150;BME280;3106;42.670;23.318;2022-12-29T11:36:51;95236.59;;;11.54;75.40
6150;BME280;3106;42.670;23.318;2022-12-29T11:39:29;95237.06;;;11.56;75.22
6150;BME280;3106;42.670;23.318;2022-12-29T11:41:57;95235.09;;;11.65;74.85
6150;BME280;3106;42.670;23.318;2022-12-29T11:44:26;95198.66;;;11.52;74.80
6150;BME280;3106;42.670;23.318;2022-12-29T11:46:54;95230.19;;;11.67;75.10
6150;BME280;3106;42.670;23.318;2022-12-29T11:49:24;95225.53;;;11.76;74.07
6150;BME280;3106;42.670;23.318;2022-12-29T11:51:53;95222.84;;;11.76;74.13
6150;BME280;3106;42.670;23.318;2022-12-29T11:54:25;95221.00;;;11.88;74.33
6150;BME280;3106;42.670;23.318;2022-12-29T11:56:54;95220.47;;;11.95;73.82
6150;BME280;3106;42.670;23.318;2022-12-29T11:59:40;95198.56;;;11.60;74.98
6150;BME280;3106;42.670;23.318;2022-12-29T12:02:32;95230.41;;;11.62;75.60
6150;BME280;3106;42.670;23.318;2022-12-29T12:05:09;95189.44;;;11.41;76.53
6150;BME280;3106;42.670;23.318;2022-12-29T12:07:42;95186.63;;;11.37;76.78
6150;BME280;3106;42.670;23.318;2022-12-29T12:10:17;95213.72;;;11.77;76.11
6150;BME280;3106;42.670;23.318;2022-12-29T12:12:51;95220.34;;;11.91;75.50
6150;BME280;3106;42.670;23.318;2022-12-29T12:15:31;95217.44;;;11.96;74.85
6150;BME280;3106;42.670;23.318;2022-12-29T12:18:05;95219.81;;;11.98;75.26
6150;BME280;3106;42.670;23.318;2022-12-29T12:20:42;95212.66;;;11.90;75.32
6150;BME280;3106;42.670;23.318;2022-12-29T12:23:19;95201.59;;;11.91;75.44
6150;BME280;3106;42.670;23.318;2022-12-29T12:25:55;95214.69;;;12.04;75.20
6150;BME280;3106;42.670;23.318;2022-12-29T12:28:32;95210.22;;;12.08;74.26
6150;BME280;3106;42.670;23.318;2022-12-29T12:31:02;95205.88;;;12.04;74.04
6150;BME280;3106;42.670;23.318;2022-12-29T12:33:34;95196.31;;;12.15;74.33
6150;BME280;3106;42.670;23.318;2022-12-29T12:36:27;95204.25;;;12.47;73.43
6150;BME280;3106;42.670;23.318;2022-12-29T12:39:02;95206.06;;;12.67;72.63
6150;BME280;3106;42.670;23.318;2022-12-29T12:41:46;95200.25;;;12.41;72.69
6150;BME280;3106;42.670;23.318;2022-12-29T12:44:26;95205.47;;;12.26;73.42
6150;BME280;3106;42.670;23.318;2022-12-29T12:47:11;95188.13;;;12.00;73.95
6150;BME280;3106;42.670;23.318;2022-12-29T12:50:02;95198.75;;;11.76;75.24
6150;BME280;3106;42.670;23.318;2022-12-29T12:52:47;95191.00;;;11.62;76.04
6150;BME280;3106;42.670;23.318;2022-12-29T12:55:41;95182.19;;;11.62;76.77
6150;BME280;3106;42.670;23.318;2022-12-29T12:58:18;95187.88;;;11.60;76.57
6150;BME280;3106;42.670;23.318;2022-12-29T13:00:50;95186.69;;;11.70;76.66
6150;BME280;3106;42.670;23.318;2022-12-29T13:03:28;95186.09;;;11.64;76.81
6150;BME280;3106;42.670;23.318;2022-12-29T13:06:09;95186.09;;;11.64;76.59
6150;BME280;3106;42.670;23.318;2022-12-29T13:09:02;95183.75;;;11.63;76.11
6150;BME280;3106;42.670;23.318;2022-12-29T13:11:40;95183.63;;;11.59;76.86
6150;BME280;3106;42.670;23.318;2022-12-29T13:14:22;95196.63;;;11.69;76.71
6150;BME280;3106;42.670;23.318;2022-12-29T13:17:03;95192.50;;;11.72;76.46
6150;BME280;3106;42.670;23.318;2022-12-29T13:19:41;95198.25;;;11.62;77.34
6150;BME280;3106;42.670;23.318;2022-12-29T13:22:19;95185.41;;;11.55;77.50
6150;BME280;3106;42.670;23.318;2022-12-29T13:24:58;95197.66;;;11.56;78.74
6150;BME280;3106;42.670;23.318;2022-12-29T13:27:37;95195.03;;;11.48;78.10
6150;BME280;3106;42.670;23.318;2022-12-29T13:30:10;95196.81;;;11.44;78.42
6150;BME280;3106;42.670;23.318;2022-12-29T13:32:54;95201.13;;;11.36;78.96
6150;BME280;3106;42.670;23.318;2022-12-29T13:35:41;95200.84;;;11.29;79.57
6150;BME280;3106;42.670;23.318;2022-12-29T13:38:16;95202.81;;;11.20;80.06
6150;BME280;3106;42.670;23.318;2022-12-29T13:40:49;95197.88;;;11.10;80.50
6150;BME280;3106;42.670;23.318;2022-12-29T13:43:23;95203.97;;;11.11;80.72
6150;BME280;3106;42.670;23.318;2022-12-29T13:46:07;95205.28;;;11.05;81.14